Time;durP1;ratioP1;P1;durP2;ratioP2;P2;SDS_P1;SDS_P2;PMS_P1;PMS_P2;Temp;Humidity;BMP_temperature;BMP_pressure;BME280_temperature;BME280_humidity;BME280_pressure;Samples;Min_cycle;Max_cycle;Signal;HPM_P1;HPM_P2
2022/08/05 00:00:58;;;;;;;7.90;3.05;;;18.70;99.90;;;;;;5007756;28;20045;-63
2022/08/05 00:03:23;;;;;;;4.97;2.63;;;18.70;99.90;;;;;;5009221;28;20030;-63
2022/08/05 00:05:49;;;;;;;4.40;2.22;;;18.70;99.90;;;;;;5009820;28;20109;-63
2022/08/05 00:08:15;;;;;;;5.63;2.40;;;18.70;99.90;;;;;;5010669;28;20048;-61
2022/08/05 00:10:40;;;;;;;5.75;2.20;;;18.60;99.90;;;;;;5010511;28;20148;-63
2022/08/05 00:13:06;;;;;;;6.65;2.40;;;18.60;99.90;;;;;;5010804;28;20041;-62
2022/08/05 00:15:32;;;;;;;3.55;2.00;;;18.60;99.90;;;;;;5013584;28;20033;-63
2022/08/05 00:17:57;;;;;;;9.55;2.65;;;18.60;99.90;;;;;;5014598;28;20222;-63
2022/08/05 00:20:23;;;;;;;7.43;2.70;;;18.60;99.90;;;;;;5016339;28;20049;-62
2022/08/05 00:22:49;;;;;;;4.18;2.15;;;18.60;99.90;;;;;;5015355;28;20037;-63
2022/08/05 00:25:15;;;;;;;5.18;2.17;;;18.60;99.90;;;;;;5017207;28;20241;-62
2022/08/05 00:27:40;;;;;;;5.35;2.92;;;18.60;99.90;;;;;;5017440;28;20176;-62
2022/08/05 00:30:07;;;;;;;6.30;2.72;;;18.50;99.90;;;;;;5018344;28;20042;-62
2022/08/05 00:32:32;;;;;;;4.22;2.45;;;18.60;99.90;;;;;;5014950;28;20056;-62
2022/08/05 00:34:58;;;;;;;6.15;2.70;;;18.50;99.90;;;;;;5019541;28;20037;-62
2022/08/05 00:37:24;;;;;;;10.95;3.47;;;18.50;99.90;;;;;;5020571;28;20041;-62
2022/08/05 00:39:49;;;;;;;5.63;2.28;;;18.50;99.90;;;;;;5016744;28;20256;-62
2022/08/05 00:42:29;;;;;;;4.30;2.60;;;18.50;99.90;;;;;;5018177;28;20535;-61
2022/08/05 00:44:55;;;;;;;6.70;3.13;;;18.40;99.90;;;;;;5020157;28;20100;-63
2022/08/05 00:47:20;;;;;;;9.00;2.83;;;18.40;99.90;;;;;;5016225;28;20045;-62
2022/08/05 00:49:46;;;;;;;6.95;2.60;;;18.40;99.90;;;;;;5010195;28;20041;-62
2022/08/05 00:52:12;;;;;;;5.82;2.55;;;18.40;99.90;;;;;;5015881;28;20041;-60
2022/08/05 00:54:37;;;;;;;7.28;2.85;;;18.50;99.90;;;;;;5011518;28;20635;-63
2022/08/05 00:57:03;;;;;;;5.47;2.45;;;18.50;99.90;;;;;;5011363;28;20269;-62
2022/08/05 00:59:29;;;;;;;7.18;2.97;;;18.40;99.90;;;;;;5020898;28;20505;-61
2022/08/05 01:01:55;;;;;;;6.07;2.80;;;18.40;99.90;;;;;;4996294;28;20071;-62
2022/08/05 01:04:20;;;;;;;5.82;3.08;;;18.40;99.90;;;;;;5009752;28;20565;-64
2022/08/05 01:06:47;;;;;;;10.23;3.13;;;18.40;99.90;;;;;;5016169;28;20268;-62
2022/08/05 01:09:13;;;;;;;5.88;2.75;;;18.40;99.90;;;;;;5019846;28;20048;-60
2022/08/05 01:11:40;;;;;;;6.68;2.40;;;18.40;99.90;;;;;;5019202;28;20049;-63
2022/08/05 01:14:05;;;;;;;6.18;3.05;;;18.40;99.90;;;;;;5023624;28;20404;-63
2022/08/05 01:16:48;;;;;;;7.75;3.13;;;18.50;99.90;;;;;;5013442;28;20044;-60
2022/08/05 01:19:40;;;;;;;6.47;3.22;;;18.50;99.90;;;;;;5014128;28;20443;-61
2022/08/05 01:22:30;;;;;;;4.80;3.10;;;18.50;99.90;;;;;;5017134;28;20412;-63
2022/08/05 01:25:07;;;;;;;8.63;3.50;;;18.50;99.90;;;;;;5012805;28;20736;-63
2022/08/05 01:28:11;;;;;;;7.88;2.60;;;18.50;99.90;;;;;;5018046;28;20072;-63
2022/08/05 01:30:40;;;;;;;8.13;2.88;;;18.50;99.90;;;;;;5010985;28;20045;-63
2022/08/05 01:33:09;;;;;;;5.28;2.42;;;18.50;99.90;;;;;;5016490;28;20052;-62
2022/08/05 01:35:38;;;;;;;5.25;3.08;;;18.50;99.90;;;;;;5027474;28;20049;-63
2022/08/05 01:38:05;;;;;;;6.10;3.22;;;18.50;99.90;;;;;;5019749;28;20092;-61
2022/08/05 01:40:32;;;;;;;6.95;3.10;;;18.50;99.90;;;;;;5015408;28;20049;-62
2022/08/05 01:43:01;;;;;;;6.32;3.17;;;18.50;99.90;;;;;;5015716;28;20041;-63
2022/08/05 01:45:29;;;;;;;6.28;2.88;;;18.50;99.90;;;;;;5016380;28;20393;-61
2022/08/05 01:47:58;;;;;;;7.93;3.25;;;18.50;99.90;;;;;;5013152;28;20513;-63
2022/08/05 01:50:28;;;;;;;9.93;3.20;;;18.50;99.90;;;;;;5010600;28;20133;-63
2022/08/05 01:52:58;;;;;;;6.18;2.70;;;18.40;99.90;;;;;;5019198;28;20062;-63
2022/08/05 01:55:28;;;;;;;6.57;2.78;;;18.40;99.90;;;;;;5014925;28;20124;-62
2022/08/05 01:57:55;;;;;;;4.82;2.80;;;18.40;99.90;;;;;;5019649;28;20537;-63
2022/08/05 02:00:22;;;;;;;5.88;2.65;;;18.40;99.90;;;;;;5037404;22;20059;-56
2022/08/05 02:03:16;;;;;;;6.97;2.92;;;18.30;99.90;;;;;;5029257;28;20084;-56
2022/08/05 02:05:43;;;;;;;6.97;2.90;;;18.30;99.90;;;;;;5024856;28;22017;-56
2022/08/05 02:08:10;;;;;;;12.07;4.10;;;18.30;99.90;;;;;;5014560;28;20259;-56
2022/08/05 02:10:41;;;;;;;5.28;3.33;;;18.20;99.90;;;;;;5029437;28;20676;-57
2022/08/05 02:13:15;;;;;;;5.03;3.28;;;18.20;99.90;;;;;;5032102;28;20688;-55
2022/08/05 02:15:46;;;;;;;9.70;3.83;;;18.10;99.90;;;;;;5021634;28;20075;-55
2022/08/05 02:18:48;;;;;;;5.60;3.78;;;18.10;99.90;;;;;;5019786;28;20041;-56
2022/08/05 02:21:18;;;;;;;5.35;3.50;;;18.10;99.90;;;;;;4988216;28;20056;-57
2022/08/05 02:23:50;;;;;;;7.32;3.40;;;18.00;99.90;;;;;;5032410;28;20033;-54
2022/08/05 02:26:26;;;;;;;6.25;3.33;;;18.00;99.90;;;;;;5035672;28;20120;-56
2022/08/05 02:28:54;;;;;;;5.78;3.30;;;18.00;99.90;;;;;;5036933;28;20053;-56
2022/08/05 02:31:26;;;;;;;4.28;2.88;;;18.60;99.90;;;;;;5032880;28;20438;-56
2022/08/05 02:34:14;;;;;;;5.60;3.72;;;17.90;99.90;;;;;;5038315;28;20045;-56
2022/08/05 02:36:52;;;;;;;6.47;3.53;;;17.90;99.90;;;;;;5036862;28;20048;-53
2022/08/05 02:39:20;;;;;;;4.88;3.05;;;17.90;99.90;;;;;;5030971;28;20043;-55
2022/08/05 02:41:50;;;;;;;7.65;4.20;;;17.90;99.90;;;;;;5017583;28;20045;-56
2022/08/05 02:44:17;;;;;;;8.60;3.60;;;17.90;99.90;;;;;;5023304;28;20040;-55
2022/08/05 02:46:47;;;;;;;8.68;4.72;;;17.90;99.90;;;;;;5025548;28;20047;-56
2022/08/05 02:49:15;;;;;;;7.35;4.30;;;17.90;99.90;;;;;;5027009;28;20041;-56
2022/08/05 02:51:43;;;;;;;8.18;4.68;;;17.90;99.90;;;;;;5029322;28;20477;-56
2022/08/05 02:54:12;;;;;;;5.28;4.10;;;17.90;99.90;;;;;;5029909;28;20048;-56
2022/08/05 02:56:40;;;;;;;6.88;4.95;;;17.90;99.90;;;;;;5027541;28;20037;-57
2022/08/05 02:59:08;;;;;;;8.57;4.50;;;17.90;99.90;;;;;;5030564;28;20086;-56
2022/08/05 03:01:39;;;;;;;10.20;5.63;;;17.90;99.90;;;;;;5004861;28;20435;-56
2022/08/05 03:04:07;;;;;;;5.68;2.80;;;17.90;99.90;;;;;;5033506;28;20488;-56
2022/08/05 03:06:34;;;;;;;7.95;4.88;;;17.80;99.90;;;;;;5019452;28;20389;-57
2022/08/05 03:09:00;;;;;;;6.20;3.40;;;17.80;99.90;;;;;;5032751;28;20102;-56
2022/08/05 03:11:27;;;;;;;5.95;3.88;;;17.80;99.90;;;;;;5014711;28;20086;-57
2022/08/05 03:13:53;;;;;;;6.97;4.22;;;17.70;99.90;;;;;;5014293;28;20323;-57
2022/08/05 03:16:20;;;;;;;5.03;4.53;;;17.80;99.90;;;;;;5027317;28;20201;-56
2022/08/05 03:18:46;;;;;;;6.45;3.50;;;17.80;99.90;;;;;;5001865;28;20111;-57
2022/08/05 03:21:12;;;;;;;5.75;3.80;;;17.80;99.90;;;;;;5027052;28;20364;-57
2022/08/05 03:23:41;;;;;;;4.97;3.97;;;17.80;99.90;;;;;;5024888;28;20045;-57
2022/08/05 03:26:07;;;;;;;9.65;4.40;;;17.70;99.90;;;;;;5030598;28;20033;-57
2022/08/05 03:28:33;;;;;;;9.32;4.15;;;17.70;99.90;;;;;;5025915;28;20037;-57
2022/08/05 03:31:00;;;;;;;6.25;4.07;;;17.70;99.90;;;;;;5026057;28;20042;-57
2022/08/05 03:33:27;;;;;;;5.70;3.63;;;17.70;99.90;;;;;;5025146;28;20121;-57
2022/08/05 03:35:55;;;;;;;7.18;4.22;;;17.70;99.90;;;;;;5031615;28;20037;-57
2022/08/05 03:38:22;;;;;;;6.95;4.85;;;17.70;99.90;;;;;;5016348;28;20063;-57
2022/08/05 03:40:48;;;;;;;9.25;5.32;;;17.70;99.90;;;;;;5028627;28;20048;-57
2022/08/05 03:43:15;;;;;;;5.32;4.00;;;17.60;99.90;;;;;;5023263;28;20037;-57
2022/08/05 03:45:41;;;;;;;7.57;5.05;;;17.70;99.90;;;;;;5028518;28;20115;-56
2022/08/05 03:48:07;;;;;;;5.05;3.92;;;17.60;99.90;;;;;;5029640;28;20037;-57
2022/08/05 03:50:59;;;;;;;6.53;5.10;;;17.50;99.90;;;;;;5021372;28;20067;-57
2022/08/05 03:53:48;;;;;;;9.88;6.03;;;17.50;99.90;;;;;;5023365;28;20037;-56
2022/08/05 03:56:27;;;;;;;4.18;2.67;;;17.50;99.90;;;;;;5036824;28;20411;-57
2022/08/05 03:58:58;;;;;;;8.93;5.20;;;17.50;99.90;;;;;;5041469;28;20096;-57
2022/08/05 04:01:27;;;;;;;5.70;4.45;;;17.50;99.90;;;;;;5035546;28;20131;-56
2022/08/05 04:03:54;;;;;;;7.28;4.85;;;17.50;99.90;;;;;;5022117;28;20056;-56
2022/08/05 04:06:21;;;;;;;5.63;4.45;;;17.50;99.90;;;;;;5041604;28;20431;-57
2022/08/05 04:08:47;;;;;;;7.10;5.63;;;17.50;99.90;;;;;;5037237;28;20041;-57
2022/08/05 04:11:12;;;;;;;6.85;4.82;;;17.40;99.90;;;;;;5034837;28;20045;-56
2022/08/05 04:13:40;;;;;;;6.22;4.03;;;17.40;99.90;;;;;;5035983;28;20032;-57
2022/08/05 04:16:11;;;;;;;7.47;4.97;;;17.40;99.90;;;;;;5035370;28;20025;-56
2022/08/05 04:18:38;;;;;;;5.22;3.22;;;17.40;99.90;;;;;;5039258;28;20037;-56
2022/08/05 04:21:05;;;;;;;9.57;5.53;;;17.30;99.90;;;;;;5034118;28;20071;-57
2022/08/05 04:23:33;;;;;;;4.97;4.47;;;17.30;99.90;;;;;;5032122;28;20566;-56
2022/08/05 04:25:58;;;;;;;5.65;4.95;;;17.30;99.90;;;;;;5013729;28;20128;-56
2022/08/05 04:28:24;;;;;;;7.90;5.68;;;17.20;99.90;;;;;;5039203;28;20108;-56
2022/08/05 04:30:50;;;;;;;7.07;5.82;;;17.20;99.90;;;;;;5031251;28;20037;-57
2022/08/05 04:33:16;;;;;;;7.32;5.93;;;17.10;99.90;;;;;;5032999;28;20040;-57
2022/08/05 04:35:42;;;;;;;7.88;5.43;;;17.20;99.90;;;;;;5015321;28;20098;-57
2022/08/05 04:38:08;;;;;;;6.60;5.55;;;17.20;99.90;;;;;;5031896;28;20036;-57
2022/08/05 04:40:39;;;;;;;7.70;5.10;;;17.20;99.90;;;;;;5030691;28;20045;-56
2022/08/05 04:43:05;;;;;;;4.20;3.80;;;17.20;99.90;;;;;;5017660;28;20148;-56
2022/08/05 04:45:32;;;;;;;6.93;5.20;;;17.20;99.90;;;;;;5010735;28;20070;-57
2022/08/05 04:48:09;;;;;;;8.18;5.05;;;17.20;99.90;;;;;;5031849;28;20550;-57
2022/08/05 04:50:43;;;;;;;8.63;5.28;;;17.20;99.90;;;;;;5037681;28;20059;-57
2022/08/05 04:53:10;;;;;;;6.95;4.25;;;17.10;99.90;;;;;;5034849;28;20051;-56
2022/08/05 04:55:37;;;;;;;10.18;5.97;;;17.10;99.90;;;;;;5030011;28;20103;-56
2022/08/05 04:58:07;;;;;;;7.28;5.22;;;17.10;99.90;;;;;;5033755;28;20040;-54
2022/08/05 05:00:33;;;;;;;5.85;5.30;;;17.10;99.90;;;;;;5033111;28;20676;-55
2022/08/05 05:03:00;;;;;;;7.28;5.25;;;17.20;99.90;;;;;;5030282;28;20041;-57
2022/08/05 05:05:26;;;;;;;5.82;4.97;;;17.20;99.90;;;;;;5030570;28;20385;-55
2022/08/05 05:07:53;;;;;;;5.63;4.75;;;17.20;99.90;;;;;;5029609;28;20587;-56
2022/08/05 05:10:18;;;;;;;5.85;3.65;;;17.20;99.90;;;;;;5030661;28;20128;-57
2022/08/05 05:12:44;;;;;;;7.65;4.68;;;17.20;99.90;;;;;;5001190;28;20037;-56
2022/08/05 05:15:10;;;;;;;5.75;5.15;;;17.30;99.90;;;;;;5032488;28;20734;-54
2022/08/05 05:17:40;;;;;;;6.30;5.05;;;17.30;99.90;;;;;;5033248;28;20057;-56
2022/08/05 05:20:07;;;;;;;6.43;4.38;;;17.20;99.90;;;;;;5013413;28;20522;-56
2022/08/05 05:22:34;;;;;;;6.72;4.93;;;17.10;99.90;;;;;;5035031;28;20045;-57
2022/08/05 05:24:59;;;;;;;7.15;4.90;;;17.00;99.90;;;;;;5015732;28;20040;-56
2022/08/05 05:27:29;;;;;;;9.00;5.97;;;17.00;99.90;;;;;;5025999;28;20037;-56
2022/08/05 05:29:55;;;;;;;4.75;4.22;;;17.00;99.90;;;;;;5028880;28;20065;-56
2022/08/05 05:32:21;;;;;;;8.73;5.30;;;17.00;99.90;;;;;;5023014;28;20525;-56
2022/08/05 05:34:47;;;;;;;5.38;4.13;;;17.10;99.90;;;;;;5023206;28;20071;-56
2022/08/05 05:37:13;;;;;;;5.18;4.15;;;17.10;99.90;;;;;;5026617;28;20095;-57
2022/08/05 05:39:39;;;;;;;5.05;4.10;;;17.20;99.90;;;;;;5029640;28;20263;-56
2022/08/05 05:42:05;;;;;;;5.18;3.58;;;17.20;99.90;;;;;;5017238;28;21514;-57
2022/08/05 05:44:31;;;;;;;5.22;3.83;;;17.30;99.90;;;;;;5015035;28;20029;-57
2022/08/05 05:46:57;;;;;;;6.78;4.82;;;17.30;99.90;;;;;;5036406;28;20472;-54
2022/08/05 05:49:23;;;;;;;6.35;4.80;;;17.40;99.90;;;;;;5025754;28;20041;-56
2022/08/05 05:51:49;;;;;;;6.32;5.22;;;17.40;99.90;;;;;;5033392;28;20529;-57
2022/08/05 05:54:14;;;;;;;7.75;4.57;;;17.40;99.90;;;;;;5014573;28;20338;-57
2022/08/05 05:56:40;;;;;;;6.20;4.82;;;17.40;99.90;;;;;;5032457;28;20045;-57
2022/08/05 05:59:06;;;;;;;6.03;4.32;;;17.50;99.90;;;;;;5013519;28;20156;-57
2022/08/05 06:01:34;;;;;;;7.03;5.65;;;17.50;99.90;;;;;;5030457;28;20385;-56
2022/08/05 06:04:00;;;;;;;6.32;4.80;;;17.60;99.90;;;;;;5030933;28;20583;-59
2022/08/05 06:06:25;;;;;;;6.10;5.10;;;17.60;99.90;;;;;;5031434;28;20148;-57
2022/08/05 06:08:51;;;;;;;8.35;4.70;;;17.70;99.90;;;;;;5015454;28;20053;-57
2022/08/05 06:11:17;;;;;;;6.28;4.13;;;17.70;99.90;;;;;;5026675;28;22272;-57
2022/08/05 06:13:42;;;;;;;6.82;4.03;;;17.70;99.90;;;;;;5031069;28;20045;-57
2022/08/05 06:16:08;;;;;;;5.90;3.88;;;17.80;99.90;;;;;;5029586;28;20085;-57
2022/08/05 06:18:34;;;;;;;5.82;4.10;;;17.90;99.90;;;;;;5030560;28;20052;-55
2022/08/05 06:20:59;;;;;;;7.38;3.67;;;18.00;99.90;;;;;;5035075;28;20190;-56
2022/08/05 06:23:25;;;;;;;5.32;3.80;;;18.10;99.90;;;;;;5018495;28;20403;-56
2022/08/05 06:25:51;;;;;;;5.57;2.85;;;18.10;99.90;;;;;;5033554;28;20044;-57
2022/08/05 06:28:16;;;;;;;4.13;2.75;;;18.20;99.90;;;;;;5029380;28;20626;-56
2022/08/05 06:30:42;;;;;;;4.30;2.03;;;18.30;99.90;;;;;;5013858;28;20707;-57
2022/08/05 06:33:08;;;;;;;4.97;2.17;;;18.30;99.90;;;;;;5028116;28;20041;-57
2022/08/05 06:35:33;;;;;;;2.75;1.50;;;18.40;99.90;;;;;;5024729;28;20078;-56
2022/08/05 06:37:59;;;;;;;4.57;1.92;;;18.50;99.90;;;;;;5008384;28;20072;-57
2022/08/05 06:40:25;;;;;;;5.35;1.90;;;18.60;99.90;;;;;;5015336;28;20037;-57
2022/08/05 06:42:51;;;;;;;4.63;2.30;;;18.60;99.90;;;;;;5036272;28;20036;-56
2022/08/05 06:45:16;;;;;;;4.07;1.90;;;18.70;99.90;;;;;;5037420;28;20029;-57
2022/08/05 06:47:42;;;;;;;4.95;1.70;;;18.80;99.90;;;;;;5021131;28;20492;-57
2022/08/05 06:50:08;;;;;;;2.83;1.25;;;18.90;99.90;;;;;;5032184;28;20396;-57
2022/08/05 06:52:34;;;;;;;5.13;1.60;;;18.80;99.90;;;;;;5038825;28;20161;-57
2022/08/05 06:55:00;;;;;;;2.72;1.10;;;18.90;99.90;;;;;;5027037;28;20365;-57
2022/08/05 06:57:25;;;;;;;3.65;1.00;;;19.00;99.90;;;;;;5027849;28;20683;-56
2022/08/05 06:59:51;;;;;;;5.32;1.17;;;19.10;99.90;;;;;;5030288;28;20037;-56
2022/08/05 07:02:17;;;;;;;2.53;0.90;;;19.20;99.90;;;;;;5011776;28;20493;-56
2022/08/05 07:04:43;;;;;;;3.03;1.05;;;19.30;99.90;;;;;;5031542;28;20086;-57
2022/08/05 07:07:08;;;;;;;3.95;1.30;;;19.40;99.90;;;;;;5030643;28;20037;-56
2022/08/05 07:09:34;;;;;;;6.95;1.42;;;19.30;99.90;;;;;;5011218;28;20547;-55
2022/08/05 07:12:00;;;;;;;3.92;1.40;;;19.20;99.90;;;;;;5000091;28;20044;-55
2022/08/05 07:17:10;;;;;;;5.25;1.23;;;19.00;99.90;;;;;;5036074;28;20408;-55
2022/08/05 07:19:36;;;;;;;7.13;1.40;;;18.90;99.90;;;;;;5030602;28;20033;-56
2022/08/05 07:22:01;;;;;;;5.90;1.70;;;18.80;99.90;;;;;;5030085;28;20083;-55
2022/08/05 07:24:27;;;;;;;4.63;1.55;;;18.90;99.90;;;;;;5035346;28;20044;-56
2022/08/05 07:26:53;;;;;;;5.93;1.17;;;19.00;99.90;;;;;;5032471;28;20032;-54
2022/08/05 07:29:18;;;;;;;3.28;1.00;;;19.20;99.90;;;;;;5037727;28;20049;-53
2022/08/05 07:31:44;;;;;;;3.45;1.00;;;19.20;99.90;;;;;;5025748;28;20045;-56
2022/08/05 07:34:10;;;;;;;5.88;1.20;;;19.30;99.90;;;;;;5029217;28;20120;-56
2022/08/05 07:36:36;;;;;;;5.53;1.08;;;19.30;99.90;;;;;;5021011;28;20051;-57
2022/08/05 07:39:06;;;;;;;3.33;1.10;;;19.40;99.90;;;;;;5036662;28;20041;-56
2022/08/05 07:41:32;;;;;;;4.05;1.30;;;19.50;99.90;;;;;;5039524;28;20064;-57
2022/08/05 07:43:58;;;;;;;2.42;1.08;;;19.60;99.90;;;;;;5032424;28;20037;-57
2022/08/05 07:46:26;;;;;;;2.72;0.90;;;19.70;99.90;;;;;;5034493;28;20098;-57
2022/08/05 07:48:54;;;;;;;3.05;0.98;;;19.70;99.90;;;;;;5036872;28;20037;-57
2022/08/05 07:51:20;;;;;;;3.17;0.82;;;19.70;99.90;;;;;;5027467;28;20275;-56
2022/08/05 07:53:45;;;;;;;3.30;1.10;;;19.50;99.90;;;;;;5027164;28;20164;-56
2022/08/05 07:56:11;;;;;;;4.15;1.00;;;19.50;99.90;;;;;;5024147;28;20494;-56
2022/08/05 07:58:37;;;;;;;2.85;1.20;;;19.40;99.90;;;;;;5034329;28;20049;-54
2022/08/05 08:01:03;;;;;;;4.03;1.27;;;19.40;99.90;;;;;;5048710;22;20252;-61
2022/08/05 08:03:28;;;;;;;2.00;0.90;;;19.50;99.90;;;;;;5033599;28;20048;-59
2022/08/05 08:05:54;;;;;;;1.63;0.80;;;19.70;99.90;;;;;;5033444;28;20594;-61
2022/08/05 08:08:20;;;;;;;3.67;1.30;;;20.00;99.90;;;;;;5029154;28;20079;-61
2022/08/05 08:10:46;;;;;;;3.78;0.95;;;20.00;99.90;;;;;;5051352;28;20122;-61
2022/08/05 08:13:11;;;;;;;4.72;1.27;;;19.90;99.90;;;;;;5051719;28;20485;-61
2022/08/05 08:15:37;;;;;;;4.53;1.20;;;19.60;99.90;;;;;;5051849;28;20049;-61
2022/08/05 08:18:03;;;;;;;2.42;0.90;;;19.40;99.90;;;;;;5053775;28;20630;-59
2022/08/05 08:20:29;;;;;;;3.50;1.00;;;19.60;99.90;;;;;;5058711;28;20048;-59
2022/08/05 08:23:01;;;;;;;6.00;1.58;;;19.60;99.90;;;;;;5056405;28;20268;-59
2022/08/05 08:25:28;;;;;;;3.13;0.98;;;19.80;99.90;;;;;;5051954;28;20067;-62
2022/08/05 08:27:58;;;;;;;3.63;0.90;;;19.80;99.90;;;;;;5049901;28;20127;-60
2022/08/05 08:30:24;;;;;;;3.22;1.00;;;19.80;99.90;;;;;;5056300;28;20520;-60
2022/08/05 08:32:49;;;;;;;2.63;1.10;;;19.80;99.90;;;;;;5054603;28;20036;-59
2022/08/05 08:35:15;;;;;;;3.55;1.08;;;19.80;99.90;;;;;;5057417;28;20411;-60
2022/08/05 08:37:41;;;;;;;4.65;0.88;;;19.80;99.90;;;;;;5036301;28;20419;-61
2022/08/05 08:40:07;;;;;;;2.33;0.85;;;19.70;99.90;;;;;;5054124;28;20049;-57
2022/08/05 08:42:33;;;;;;;2.63;0.70;;;20.00;99.90;;;;;;5057671;28;20036;-61
2022/08/05 08:44:59;;;;;;;2.35;0.63;;;20.10;99.90;;;;;;5047293;28;20036;-61
2022/08/05 08:47:27;;;;;;;4.50;1.08;;;20.30;99.90;;;;;;5029921;28;20500;-61
2022/08/05 08:49:55;;;;;;;10.30;0.98;;;20.30;99.90;;;;;;5034931;28;20049;-59
2022/08/05 08:52:29;;;;;;;3.85;1.00;;;19.90;99.90;;;;;;5043174;28;20052;-63
2022/08/05 08:54:55;;;;;;;3.60;0.75;;;19.80;99.90;;;;;;5046253;28;20131;-62
2022/08/05 08:57:21;;;;;;;3.13;0.80;;;19.80;99.90;;;;;;5046962;28;20575;-62
2022/08/05 08:59:48;;;;;;;3.17;0.93;;;19.70;99.90;;;;;;5047468;28;20047;-62
2022/08/05 09:02:17;;;;;;;2.05;0.90;;;20.00;99.90;;;;;;5050239;28;20044;-61
2022/08/05 09:04:44;;;;;;;3.67;1.33;;;20.10;99.90;;;;;;5047097;28;20055;-61
2022/08/05 09:07:10;;;;;;;4.22;0.70;;;20.10;99.90;;;;;;5053267;28;20048;-62
2022/08/05 09:09:37;;;;;;;3.60;1.20;;;20.20;99.90;;;;;;5051355;28;20045;-63
2022/08/05 09:12:04;;;;;;;1.75;0.63;;;20.40;99.80;;;;;;5059983;28;20182;-62
2022/08/05 09:14:36;;;;;;;2.70;0.93;;;20.60;99.90;;;;;;5054926;28;20036;-60
2022/08/05 09:17:11;;;;;;;6.68;0.80;;;20.50;99.00;;;;;;5065756;28;20056;-63
2022/08/05 09:19:37;;;;;;;2.47;0.60;;;20.60;98.20;;;;;;5087426;28;20044;-64
2022/08/05 09:22:03;;;;;;;2.05;0.50;;;20.60;96.80;;;;;;5077549;28;20041;-63
2022/08/05 09:24:29;;;;;;;2.53;0.80;;;20.60;95.50;;;;;;5052236;28;20033;-62
2022/08/05 09:26:56;;;;;;;1.38;0.43;;;20.60;95.30;;;;;;5070226;28;20166;-63
2022/08/05 09:29:44;;;;;;;1.85;0.52;;;20.70;95.80;;;;;;5071414;28;20487;-63
2022/08/05 09:32:11;;;;;;;0.70;0.45;;;20.80;93.90;;;;;;5050917;28;20044;-61
2022/08/05 09:34:54;;;;;;;2.80;0.50;;;20.70;94.20;;;;;;5050863;28;20056;-63
2022/08/05 09:37:23;;;;;;;1.65;0.60;;;20.60;93.20;;;;;;5068677;28;20044;-57
2022/08/05 09:39:49;;;;;;;2.63;1.15;;;20.60;94.70;;;;;;5071135;28;20084;-62
2022/08/05 09:42:24;;;;;;;2.53;0.70;;;20.70;94.70;;;;;;5072124;28;20064;-61
2022/08/05 09:44:52;;;;;;;0.57;0.30;;;20.90;94.40;;;;;;5068079;28;20133;-60
2022/08/05 09:47:24;;;;;;;0.95;0.40;;;20.90;90.20;;;;;;5060731;28;20032;-61
2022/08/05 09:49:52;;;;;;;0.43;0.40;;;20.70;90.70;;;;;;5070872;28;20407;-61
2022/08/05 09:52:30;;;;;;;2.60;0.52;;;20.80;91.00;;;;;;5071425;28;20123;-62
2022/08/05 09:55:05;;;;;;;1.95;0.50;;;20.90;91.20;;;;;;5072065;28;20056;-61
2022/08/05 09:57:42;;;;;;;1.77;0.60;;;20.90;90.70;;;;;;5070529;28;20516;-63
2022/08/05 10:00:20;;;;;;;4.10;0.60;;;21.10;90.20;;;;;;5068980;28;20045;-63
2022/08/05 10:02:48;;;;;;;1.45;0.52;;;21.30;91.80;;;;;;5056545;28;20045;-62
2022/08/05 10:05:18;;;;;;;2.60;0.50;;;21.30;91.30;;;;;;5060015;28;20123;-65
2022/08/05 10:07:53;;;;;;;2.15;0.40;;;21.40;91.00;;;;;;5050630;28;20041;-63
2022/08/05 10:10:24;;;;;;;1.65;0.52;;;21.30;89.80;;;;;;5052022;28;20045;-64
2022/08/05 10:12:51;;;;;;;0.57;0.38;;;21.00;88.60;;;;;;5052156;28;20498;-62
2022/08/05 10:15:25;;;;;;;0.95;0.45;;;21.10;90.60;;;;;;5050626;28;20051;-64
2022/08/05 10:18:15;;;;;;;4.30;0.47;;;21.30;91.30;;;;;;5048484;28;20126;-64
2022/08/05 10:20:51;;;;;;;3.30;0.65;;;21.20;90.90;;;;;;5058679;28;20056;-65
2022/08/05 10:23:32;;;;;;;3.47;0.60;;;21.40;90.20;;;;;;5056986;28;20037;-64
2022/08/05 10:26:00;;;;;;;1.48;0.75;;;21.60;90.30;;;;;;5057264;28;20044;-68
2022/08/05 10:28:28;;;;;;;0.80;0.40;;;21.70;91.00;;;;;;5064742;28;20088;-62
2022/08/05 10:30:54;;;;;;;2.42;0.85;;;21.60;86.80;;;;;;5046728;28;20044;-62
2022/08/05 10:33:24;;;;;;;2.05;0.55;;;21.40;89.30;;;;;;5048321;28;20125;-61
2022/08/05 10:35:51;;;;;;;3.22;0.50;;;21.40;90.10;;;;;;5047752;28;20579;-62
2022/08/05 10:38:23;;;;;;;2.05;0.60;;;21.50;91.20;;;;;;5043639;28;20410;-58
2022/08/05 10:41:12;;;;;;;1.75;0.70;;;21.40;91.40;;;;;;5047728;28;20041;-61
2022/08/05 10:44:04;;;;;;;2.33;0.70;;;21.20;91.90;;;;;;5047137;28;20211;-62
2022/08/05 10:46:51;;;;;;;1.38;0.50;;;21.30;92.80;;;;;;5049925;28;20036;-58
2022/08/05 10:49:17;;;;;;;2.95;0.75;;;21.30;92.20;;;;;;5047173;28;20143;-59
2022/08/05 10:52:01;;;;;;;3.92;0.73;;;21.40;92.20;;;;;;5051844;28;20052;-61
2022/08/05 10:54:47;;;;;;;2.13;0.40;;;21.40;91.70;;;;;;5049841;28;20037;-60
2022/08/05 10:57:24;;;;;;;0.80;0.47;;;21.30;91.30;;;;;;5051003;28;20036;-67
2022/08/05 11:00:11;;;;;;;2.03;0.60;;;21.00;90.90;;;;;;5046774;28;20053;-60
2022/08/05 11:02:37;;;;;;;2.67;0.68;;;21.00;91.20;;;;;;5054070;28;20040;-59
2022/08/05 11:05:08;;;;;;;4.05;0.70;;;21.20;91.50;;;;;;5056332;28;20032;-61
2022/08/05 11:07:34;;;;;;;1.38;0.52;;;21.50;91.90;;;;;;5053249;28;20114;-61
2022/08/05 11:10:01;;;;;;;1.88;0.70;;;21.60;91.60;;;;;;5054899;28;20076;-61
2022/08/05 11:12:33;;;;;;;2.92;0.82;;;21.80;91.90;;;;;;5044727;28;20044;-61
2022/08/05 11:15:15;;;;;;;1.02;0.50;;;21.80;91.50;;;;;;5058382;28;20072;-61
2022/08/05 11:17:43;;;;;;;1.77;0.80;;;21.70;90.80;;;;;;5052818;28;20045;-62
2022/08/05 11:20:43;;;;;;;2.22;0.55;;;21.20;90.80;;;;;;5059532;28;20116;-62
2022/08/05 11:23:27;;;;;;;3.22;0.60;;;20.50;92.00;;;;;;5062172;28;20055;-61
2022/08/05 11:26:10;;;;;;;1.88;0.47;;;20.60;91.60;;;;;;5052615;28;20855;-61
2022/08/05 11:28:42;;;;;;;3.85;0.68;;;20.50;91.90;;;;;;5054791;28;20041;-61
2022/08/05 11:31:07;;;;;;;2.03;0.65;;;20.30;91.90;;;;;;5059706;28;20032;-61
2022/08/05 11:33:50;;;;;;;2.00;0.65;;;20.00;92.70;;;;;;5055612;28;20044;-62
2022/08/05 11:36:37;;;;;;;2.90;0.47;;;20.00;93.30;;;;;;5053881;28;20143;-60
2022/08/05 11:39:04;;;;;;;3.92;0.60;;;20.20;93.00;;;;;;5078667;28;20105;-60
2022/08/05 11:41:34;;;;;;;1.65;0.60;;;20.20;92.40;;;;;;5061115;28;20032;-62
2022/08/05 11:44:05;;;;;;;3.15;0.55;;;20.30;92.80;;;;;;5050564;28;21533;-59
2022/08/05 11:46:35;;;;;;;1.98;0.40;;;20.40;92.20;;;;;;5049888;28;20063;-60
2022/08/05 11:49:03;;;;;;;2.15;0.52;;;20.50;92.10;;;;;;5049270;28;20534;-59
2022/08/05 11:51:33;;;;;;;2.03;0.55;;;21.10;92.20;;;;;;5052231;28;20824;-61
2022/08/05 11:54:01;;;;;;;0.60;0.40;;;21.30;91.00;;;;;;5052143;28;20138;-60
2022/08/05 11:56:47;;;;;;;4.65;0.60;;;21.60;91.50;;;;;;5056268;28;20037;-60
2022/08/05 11:59:24;;;;;;;1.77;0.50;;;21.60;90.00;;;;;;5050439;28;20045;-61
2022/08/05 12:02:07;;;;;;;1.85;0.50;;;21.20;88.40;;;;;;5050440;28;20047;-62
2022/08/05 12:04:44;;;;;;;2.65;0.90;;;20.80;89.60;;;;;;5029952;28;20045;-61
2022/08/05 12:07:13;;;;;;;3.20;0.70;;;20.50;91.10;;;;;;5049922;28;20028;-60
2022/08/05 12:09:46;;;;;;;0.35;0.35;;;20.30;91.80;;;;;;5041226;28;20047;-62
2022/08/05 12:12:12;;;;;;;2.60;0.60;;;20.30;92.80;;;;;;5051545;28;20045;-61
2022/08/05 12:14:42;;;;;;;1.73;0.47;;;20.30;92.60;;;;;;5066879;28;20039;-61
2022/08/05 12:17:12;;;;;;;4.40;0.50;;;20.20;93.10;;;;;;5051704;28;20080;-59
2022/08/05 12:19:45;;;;;;;1.58;0.40;;;20.40;92.80;;;;;;5056135;28;20044;-60
2022/08/05 12:22:12;;;;;;;0.30;0.30;;;20.20;91.80;;;;;;5060451;28;20041;-60
2022/08/05 12:24:50;;;;;;;1.42;0.40;;;20.00;91.70;;;;;;5059927;28;20106;-62
2022/08/05 12:27:24;;;;;;;1.63;0.68;;;20.30;92.10;;;;;;5056004;28;20056;-58
2022/08/05 12:30:09;;;;;;;1.52;0.77;;;20.40;92.50;;;;;;5049527;28;20112;-60
2022/08/05 12:32:44;;;;;;;1.60;0.63;;;20.60;92.40;;;;;;5042785;28;20033;-59
2022/08/05 12:35:10;;;;;;;2.30;0.63;;;20.70;91.60;;;;;;5044714;28;20399;-65
2022/08/05 12:37:36;;;;;;;2.75;0.65;;;21.00;91.40;;;;;;5048653;28;20506;-60
2022/08/05 12:40:05;;;;;;;3.30;0.63;;;21.00;91.20;;;;;;5051250;28;20048;-60
2022/08/05 12:42:31;;;;;;;1.00;0.50;;;21.10;92.00;;;;;;5047751;28;20553;-60
2022/08/05 12:45:05;;;;;;;1.33;0.60;;;20.80;91.10;;;;;;5041670;28;20041;-59
2022/08/05 12:47:30;;;;;;;;;;;21.10;91.70;;;;;;5050071;28;20126;-58
2022/08/05 12:49:57;;;;;;;2.83;0.63;;;21.10;91.20;;;;;;5029710;28;20003;-59
2022/08/05 12:52:23;;;;;;;1.55;0.57;;;21.10;91.70;;;;;;5052016;28;20043;-62
2022/08/05 12:54:49;;;;;;;0.93;0.40;;;20.60;91.70;;;;;;5050893;28;20044;-61
2022/08/05 12:57:16;;;;;;;1.55;0.60;;;20.50;91.50;;;;;;5041983;28;20238;-57
2022/08/05 12:59:50;;;;;;;0.55;0.45;;;20.40;91.90;;;;;;5053905;28;20411;-61
2022/08/05 13:02:23;;;;;;;1.60;0.70;;;20.30;91.50;;;;;;5037915;28;20395;-59